Terminal Aerodrome Forecast
Issued by NWS Buffalo, NY

Current Version | Previous Version | Text Only | Print | Product List | Glossary On
Versions: 1 2 3 4 5 6 7 8 9 10 11 12 13 14 15 16 17 18 19 20 21 22 23 24
281
FTUS41 KBUF 250231 AAA
TAFART
TAF AMD
KART 250231Z 2503/2524 VRB03KT P6SM SCT050 OVC110
     FM250800 14004KT 6SM -RA OVC040
     FM250900 VRB03KT 4SM -RA BR OVC025
     FM251200 11004KT 6SM -RA OVC025
     FM251800 VRB03KT 6SM -RA OVC012
     FM252100 01005KT 6SM -RA OVC012=

USA.gov is the U.S. government's official web portal to all federal, state and local government web resources and services.